SEJ1440 OMDB-VABB
Flight info
| Callsign | SEJ1440 |
|---|---|
| Flight time | N/A |
| Altitude | 37000 |
| Route | IVURO M677 LALDO B505 NADSO A777 VAXIM L301 KARKU M638 EXOLU POKON2A |
| Aircraft | B738/M-SDE2E3FGHIRWXY/LB1 |
Departure
| Time | N/A |
|---|---|
| Airport | Dubai International Airport (OMDB) |
Arrival
| Time | 2026-04-30 03:54 |
|---|---|
| Airport | Chhatrapati Shivaji Maharaj International Airport (VABB) |
| Time | Latitude | Longitude | Altitude | Speed | Heading |
|---|---|---|---|---|---|
| 2026-04-30 03:37 | 20.11618 | 71.68185 | 24163 ft | 440 kts | 132° |
| 2026-04-30 03:37 | 20.09534 | 71.70553 | 23732 ft | 437 kts | 132° |
| 2026-04-30 03:37 | 20.07473 | 71.72912 | 23250 ft | 434 kts | 132° |
| 2026-04-30 03:38 | 20.05458 | 71.75228 | 22741 ft | 430 kts | 132° |
| 2026-04-30 03:38 | 20.03415 | 71.77581 | 22279 ft | 426 kts | 132° |
| 2026-04-30 03:38 | 20.01442 | 71.79853 | 21829 ft | 422 kts | 132° |
| 2026-04-30 03:38 | 19.99462 | 71.82132 | 21383 ft | 418 kts | 132° |
| 2026-04-30 03:39 | 19.97500 | 71.84390 | 20942 ft | 414 kts | 132° |
| 2026-04-30 03:39 | 19.95558 | 71.86623 | 20497 ft | 410 kts | 132° |
| 2026-04-30 03:39 | 19.93631 | 71.88836 | 20065 ft | 406 kts | 132° |
| 2026-04-30 03:39 | 19.91727 | 71.91024 | 19642 ft | 402 kts | 132° |
| 2026-04-30 03:40 | 19.89828 | 71.93205 | 19200 ft | 399 kts | 132° |
| 2026-04-30 03:40 | 19.87945 | 71.95366 | 18772 ft | 397 kts | 133° |
| 2026-04-30 03:40 | 19.86084 | 71.97502 | 18372 ft | 393 kts | 133° |
| 2026-04-30 03:40 | 19.84239 | 71.99620 | 17993 ft | 388 kts | 133° |
| 2026-04-30 03:41 | 19.82416 | 72.01713 | 17569 ft | 384 kts | 133° |
| 2026-04-30 03:41 | 19.80621 | 72.03772 | 17346 ft | 374 kts | 133° |
| 2026-04-30 03:41 | 19.78881 | 72.05764 | 17261 ft | 362 kts | 133° |
| 2026-04-30 03:41 | 19.77197 | 72.07688 | 17156 ft | 350 kts | 133° |
| 2026-04-30 03:42 | 19.75579 | 72.09583 | 16963 ft | 343 kts | 132° |
| 2026-04-30 03:42 | 19.74001 | 72.11466 | 16609 ft | 341 kts | 131° |
| 2026-04-30 03:42 | 19.72425 | 72.13357 | 16212 ft | 341 kts | 131° |
| 2026-04-30 03:42 | 19.70856 | 72.15241 | 15854 ft | 340 kts | 131° |
| 2026-04-30 03:43 | 19.69291 | 72.17117 | 15518 ft | 339 kts | 131° |
| 2026-04-30 03:43 | 19.67732 | 72.18984 | 15144 ft | 337 kts | 132° |
| 2026-04-30 03:43 | 19.66180 | 72.20842 | 14825 ft | 336 kts | 132° |
| 2026-04-30 03:43 | 19.64630 | 72.22695 | 14503 ft | 335 kts | 132° |
| 2026-04-30 03:44 | 19.63088 | 72.24538 | 14173 ft | 333 kts | 132° |
| 2026-04-30 03:44 | 19.61553 | 72.26371 | 13843 ft | 332 kts | 132° |
| 2026-04-30 03:44 | 19.60017 | 72.28206 | 13469 ft | 332 kts | 132° |
| 2026-04-30 03:44 | 19.58487 | 72.30034 | 13122 ft | 331 kts | 132° |
| 2026-04-30 03:45 | 19.56963 | 72.31857 | 12797 ft | 328 kts | 133° |
| 2026-04-30 03:45 | 19.55452 | 72.33660 | 12503 ft | 325 kts | 133° |
| 2026-04-30 03:45 | 19.53987 | 72.35405 | 12372 ft | 317 kts | 133° |
| 2026-04-30 03:45 | 19.52543 | 72.37123 | 12281 ft | 307 kts | 133° |
| 2026-04-30 03:46 | 19.51142 | 72.38792 | 12118 ft | 300 kts | 133° |
| 2026-04-30 03:46 | 19.49762 | 72.40443 | 11848 ft | 299 kts | 133° |
| 2026-04-30 03:46 | 19.48383 | 72.42091 | 11536 ft | 299 kts | 134° |
| 2026-04-30 03:46 | 19.46994 | 72.43727 | 11249 ft | 298 kts | 135° |
| 2026-04-30 03:47 | 19.45600 | 72.45345 | 10962 ft | 297 kts | 135° |
| 2026-04-30 03:47 | 19.44208 | 72.46956 | 10681 ft | 296 kts | 135° |
| 2026-04-30 03:47 | 19.42821 | 72.48565 | 10410 ft | 295 kts | 136° |
| 2026-04-30 03:47 | 19.41437 | 72.50172 | 10046 ft | 298 kts | 136° |
| 2026-04-30 03:48 | 19.40021 | 72.51817 | 9523 ft | 307 kts | 136° |
| 2026-04-30 03:48 | 19.38562 | 72.53513 | 8904 ft | 313 kts | 136° |
| 2026-04-30 03:48 | 19.37095 | 72.55222 | 8295 ft | 315 kts | 135° |
| 2026-04-30 03:48 | 19.35620 | 72.56942 | 7697 ft | 315 kts | 135° |
| 2026-04-30 03:49 | 19.34148 | 72.58657 | 7107 ft | 315 kts | 135° |
| 2026-04-30 03:49 | 19.32673 | 72.60377 | 6535 ft | 315 kts | 135° |
| 2026-04-30 03:49 | 19.31199 | 72.62096 | 5943 ft | 315 kts | 134° |
| 2026-04-30 03:49 | 19.29728 | 72.63810 | 5360 ft | 314 kts | 134° |
| 2026-04-30 03:50 | 19.28263 | 72.65514 | 4773 ft | 312 kts | 134° |
| 2026-04-30 03:50 | 19.26819 | 72.67191 | 4404 ft | 302 kts | 134° |
| 2026-04-30 03:50 | 19.25427 | 72.68802 | 4066 ft | 292 kts | 135° |
| 2026-04-30 03:50 | 19.24039 | 72.70324 | 3773 ft | 282 kts | 136° |
| 2026-04-30 03:51 | 19.22689 | 72.71777 | 3469 ft | 273 kts | 136° |
| 2026-04-30 03:51 | 19.21382 | 72.73187 | 3175 ft | 265 kts | 136° |
| 2026-04-30 03:51 | 19.20111 | 72.74562 | 2863 ft | 258 kts | 136° |
| 2026-04-30 03:51 | 19.18888 | 72.75888 | 2646 ft | 246 kts | 136° |
| 2026-04-30 03:52 | 19.17682 | 72.77177 | 2255 ft | 245 kts | 137° |
| 2026-04-30 03:52 | 19.16499 | 72.78447 | 1922 ft | 236 kts | 136° |
| 2026-04-30 03:52 | 19.15407 | 72.79640 | 1625 ft | 216 kts | 136° |
| 2026-04-30 03:52 | 19.14398 | 72.80741 | 1353 ft | 202 kts | 136° |
| 2026-04-30 03:53 | 19.13422 | 72.81806 | 1086 ft | 202 kts | 136° |
| 2026-04-30 03:53 | 19.12427 | 72.82892 | 866 ft | 207 kts | 136° |
| 2026-04-30 03:53 | 19.11453 | 72.83958 | 609 ft | 192 kts | 136° |
| 2026-04-30 03:53 | 19.10573 | 72.84919 | 328 ft | 174 kts | 137° |
| 2026-04-30 03:54 | 19.09786 | 72.85785 | 134 ft | 154 kts | 137° |
| 2026-04-30 03:54 | 19.09070 | 72.86562 | 32 ft | 138 kts | 134° |
| 2026-04-30 03:54 | 19.08504 | 72.87181 | 26 ft | 89 kts | 135° |
| 2026-04-30 03:54 | 19.08330 | 72.87372 | 25 ft | 8 kts | 129° |
| 2026-04-30 03:55 | 19.08291 | 72.87432 | 25 ft | 10 kts | 118° |
| 2026-04-30 03:55 | 19.08262 | 72.87498 | 28 ft | 10 kts | 115° |
| 2026-04-30 03:55 | 19.08239 | 72.87565 | 25 ft | 10 kts | 95° |
| 2026-04-30 03:55 | 25.26399 | 55.35850 | 16 ft | 0 kts | 29° |
| 2026-04-30 03:56 | 25.24880 | 55.37528 | 25 ft | 22 kts | 121° |
| 2026-04-30 03:56 | 25.24917 | 55.37820 | 31 ft | 104 kts | 301° |
| 2026-04-30 03:56 | 25.25413 | 55.36902 | 30 ft | 170 kts | 301° |